createdAt,value
2022-11-21T00:00:53.613Z,95.20
2022-11-21T00:03:20.942Z,94.95
2022-11-21T00:05:49.863Z,95.26
2022-11-21T00:08:19.489Z,95.02
2022-11-21T00:10:46.806Z,95.25
2022-11-21T00:13:17.130Z,95.30
2022-11-21T00:15:44.523Z,95.24
2022-11-21T00:18:13.010Z,95.04
2022-11-21T00:20:41.162Z,95.28
2022-11-21T00:23:08.772Z,94.91
2022-11-21T00:25:36.765Z,95.27
2022-11-21T00:28:04.922Z,94.97
2022-11-21T00:30:32.210Z,95.07
2022-11-21T00:32:59.690Z,95.00
2022-11-21T00:35:27.343Z,95.03
2022-11-21T00:37:54.503Z,95.27
2022-11-21T00:40:21.461Z,95.16
2022-11-21T00:42:48.466Z,95.19
2022-11-21T00:45:19.674Z,94.92
2022-11-21T00:47:48.215Z,94.87
2022-11-21T00:50:16.113Z,94.72
2022-11-21T00:52:43.724Z,94.50
2022-11-21T00:55:10.607Z,94.62
2022-11-21T00:57:37.649Z,94.66
2022-11-21T01:00:06.366Z,94.63
2022-11-21T01:02:33.572Z,94.54
2022-11-21T01:05:00.462Z,94.26
2022-11-21T01:07:27.854Z,94.46
2022-11-21T01:09:54.803Z,94.22
2022-11-21T01:12:22.056Z,94.35
2022-11-21T01:14:49.132Z,94.57
2022-11-21T01:17:16.125Z,94.67
2022-11-21T01:19:43.188Z,94.43
2022-11-21T01:22:10.135Z,94.49
2022-11-21T01:24:37.084Z,94.35
2022-11-21T01:27:04.107Z,94.33
2022-11-21T01:29:31.007Z,94.68
2022-11-21T01:31:57.973Z,94.43
2022-11-21T01:34:25.115Z,94.72
2022-11-21T01:36:52.555Z,94.65
2022-11-21T01:39:19.453Z,94.48
2022-11-21T01:41:46.694Z,94.66
2022-11-21T01:44:25.770Z,94.48
2022-11-21T01:46:53.644Z,94.53
2022-11-21T01:49:26.676Z,94.55
2022-11-21T01:52:07.854Z,94.60
2022-11-21T01:54:43.001Z,94.65
2022-11-21T01:57:15.088Z,94.53
2022-11-21T02:00:04.050Z,94.45
2022-11-21T02:02:40.124Z,94.32
2022-11-21T02:05:11.647Z,94.55
2022-11-21T02:07:43.537Z,94.45
2022-11-21T02:10:11.648Z,94.25
2022-11-21T02:12:43.786Z,94.38
2022-11-21T02:15:11.803Z,94.11
2022-11-21T02:17:38.946Z,94.11
2022-11-21T02:20:10.203Z,94.31
2022-11-21T02:22:55.283Z,93.96
2022-11-21T02:25:29.000Z,94.19
2022-11-21T02:28:00.682Z,94.23
2022-11-21T02:30:29.972Z,94.09
2022-11-21T02:32:57.029Z,94.02
2022-11-21T02:35:24.362Z,93.99
2022-11-21T02:37:59.233Z,93.99
2022-11-21T02:40:32.694Z,93.75
2022-11-21T02:43:08.443Z,93.77
2022-11-21T02:45:40.039Z,94.00
2022-11-21T02:48:07.504Z,93.76
2022-11-21T02:50:39.807Z,93.64
2022-11-21T02:53:08.816Z,93.58
2022-11-21T02:55:36.132Z,92.51
2022-11-21T02:58:05.276Z,91.88
2022-11-21T03:00:34.048Z,93.00
2022-11-21T03:03:01.245Z,93.44
2022-11-21T03:05:28.430Z,93.94
2022-11-21T03:07:55.481Z,93.97
2022-11-21T03:10:22.362Z,93.67
2022-11-21T03:12:49.323Z,94.03
2022-11-21T03:15:16.685Z,93.98
2022-11-21T03:17:43.987Z,93.56
2022-11-21T03:20:11.410Z,92.79
2022-11-21T03:22:38.444Z,92.28
2022-11-21T03:25:05.785Z,92.68
2022-11-21T03:27:32.731Z,92.93
2022-11-21T03:29:59.635Z,93.16
2022-11-21T03:32:26.632Z,93.56
2022-11-21T03:34:53.770Z,94.00
2022-11-21T03:37:20.933Z,93.97
2022-11-21T03:39:47.783Z,94.14
2022-11-21T03:42:14.759Z,94.40
2022-11-21T03:44:42.006Z,94.22
2022-11-21T03:47:09.003Z,94.61
2022-11-21T03:49:35.942Z,94.58
2022-11-21T03:52:02.953Z,94.67
2022-11-21T03:54:30.085Z,94.72
2022-11-21T03:56:57.173Z,94.57
2022-11-21T03:59:24.133Z,94.48
2022-11-21T04:01:51.139Z,94.39
2022-11-21T04:04:18.572Z,94.48
2022-11-21T04:06:45.560Z,94.61
2022-11-21T04:09:13.402Z,94.72
2022-11-21T04:11:40.332Z,94.56
2022-11-21T04:14:07.241Z,94.97
2022-11-21T04:16:34.218Z,94.81
2022-11-21T04:19:01.228Z,95.03
2022-11-21T04:21:28.123Z,94.71
2022-11-21T04:23:55.010Z,94.82
2022-11-21T04:26:21.971Z,94.57
2022-11-21T04:28:48.925Z,94.66
2022-11-21T04:31:15.875Z,94.83
2022-11-21T04:33:43.499Z,94.83
2022-11-21T04:36:10.645Z,94.91
2022-11-21T04:38:37.885Z,95.03
2022-11-21T04:41:05.162Z,95.13
2022-11-21T04:43:32.123Z,94.96
2022-11-21T04:45:59.119Z,94.79
2022-11-21T04:48:26.044Z,94.85
2022-11-21T04:50:53.053Z,94.96
2022-11-21T04:53:20.151Z,94.77
2022-11-21T04:55:47.146Z,94.92
2022-11-21T04:58:14.171Z,94.36
2022-11-21T05:00:41.360Z,94.87
2022-11-21T05:03:08.184Z,93.73
2022-11-21T05:05:35.242Z,92.74
2022-11-21T05:08:02.277Z,93.08
2022-11-21T05:10:29.414Z,93.82
2022-11-21T05:13:16.963Z,94.43
2022-11-21T05:15:44.081Z,94.70
2022-11-21T05:18:11.430Z,94.80
2022-11-21T05:20:38.382Z,94.91
2022-11-21T05:23:05.243Z,94.96
2022-11-21T05:25:32.288Z,94.72
2022-11-21T05:27:59.244Z,94.70
2022-11-21T05:30:26.277Z,94.47
2022-11-21T05:32:53.403Z,94.60
2022-11-21T05:35:20.460Z,94.62
2022-11-21T05:37:47.325Z,94.42
2022-11-21T05:40:14.446Z,94.75
2022-11-21T05:43:01.784Z,94.56
2022-11-21T05:45:28.761Z,94.48
2022-11-21T05:47:55.817Z,94.29
2022-11-21T05:50:23.286Z,94.47
2022-11-21T05:52:50.212Z,94.60
2022-11-21T05:55:17.195Z,94.54
2022-11-21T05:57:44.137Z,94.70
2022-11-21T06:00:11.643Z,94.83
2022-11-21T06:02:57.035Z,94.78
2022-11-21T06:05:24.073Z,94.84
2022-11-21T06:07:51.024Z,94.99
2022-11-21T06:10:18.203Z,95.09
2022-11-21T06:12:45.111Z,95.04
2022-11-21T06:15:12.123Z,94.73
2022-11-21T06:17:39.083Z,94.90
2022-11-21T06:20:06.527Z,94.81
2022-11-21T06:22:33.465Z,94.99
2022-11-21T06:25:00.476Z,95.00
2022-11-21T06:27:29.672Z,94.88
2022-11-21T06:29:56.610Z,94.93
2022-11-21T06:32:23.696Z,95.15
2022-11-21T06:34:50.764Z,95.18
2022-11-21T06:37:17.643Z,95.23
2022-11-21T06:39:44.623Z,95.54
2022-11-21T06:42:11.643Z,95.49
2022-11-21T06:44:38.490Z,95.42
2022-11-21T06:47:05.482Z,95.33
2022-11-21T06:49:32.526Z,95.53
2022-11-21T06:51:59.803Z,95.52
2022-11-21T06:54:26.774Z,95.26
2022-11-21T06:56:55.677Z,95.35
2022-11-21T06:59:22.696Z,95.21
2022-11-21T07:01:49.863Z,95.34
2022-11-21T07:04:16.849Z,95.44
2022-11-21T07:06:43.965Z,95.44
2022-11-21T07:09:32.053Z,95.00
2022-11-21T07:12:18.714Z,95.04
2022-11-21T07:14:45.949Z,95.11
2022-11-21T07:17:13.483Z,94.70
2022-11-21T07:19:41.296Z,95.03
2022-11-21T07:22:08.730Z,94.75
2022-11-21T07:24:35.644Z,94.66
2022-11-21T07:27:02.840Z,94.62
2022-11-21T07:29:30.223Z,94.36
2022-11-21T07:31:57.466Z,94.43
2022-11-21T07:34:24.593Z,94.64
2022-11-21T07:36:51.498Z,94.55
2022-11-21T07:39:18.523Z,94.35
2022-11-21T07:41:45.456Z,94.49
2022-11-21T07:44:12.443Z,94.81
2022-11-21T07:46:39.263Z,94.74
2022-11-21T07:49:06.695Z,94.47
2022-11-21T07:51:33.637Z,94.60
2022-11-21T07:54:00.691Z,94.22
2022-11-21T07:56:27.817Z,93.95
2022-11-21T07:58:54.765Z,93.81
2022-11-21T08:01:21.830Z,93.68
2022-11-21T08:03:49.819Z,93.92
2022-11-21T08:06:16.878Z,93.85
2022-11-21T08:08:44.316Z,93.84
2022-11-21T08:11:11.282Z,93.64
2022-11-21T08:13:38.263Z,93.77
2022-11-21T08:16:05.679Z,93.66
2022-11-21T08:18:33.544Z,93.61
2022-11-21T08:21:05.089Z,93.54
2022-11-21T08:23:32.935Z,93.42
2022-11-21T08:26:00.073Z,93.43
2022-11-21T08:28:27.203Z,93.24
2022-11-21T08:30:54.574Z,93.33
2022-11-21T08:33:22.224Z,93.69
2022-11-21T08:35:49.171Z,93.44
2022-11-21T08:38:16.204Z,93.64
2022-11-21T08:40:43.087Z,93.28
2022-11-21T08:43:10.439Z,93.12
2022-11-21T08:45:39.559Z,93.08
2022-11-21T08:48:11.871Z,92.78
2022-11-21T08:50:39.260Z,92.86
2022-11-21T08:53:06.213Z,92.65
2022-11-21T08:55:33.154Z,92.84
2022-11-21T08:58:00.048Z,92.84
2022-11-21T09:00:27.826Z,92.80
2022-11-21T09:02:54.778Z,92.77
2022-11-21T09:05:21.790Z,92.61
2022-11-21T09:07:49.002Z,92.42
2022-11-21T09:10:16.124Z,92.61
2022-11-21T09:12:43.416Z,92.43
2022-11-21T09:15:29.916Z,92.28
2022-11-21T09:18:04.044Z,91.91
2022-11-21T09:20:39.773Z,92.02
2022-11-21T09:23:08.832Z,91.93
2022-11-21T09:25:36.028Z,92.09
2022-11-21T09:28:04.590Z,91.62
2022-11-21T09:30:31.564Z,91.92
2022-11-21T09:33:11.184Z,91.56
2022-11-21T09:35:39.010Z,91.46
2022-11-21T09:38:06.305Z,91.49
2022-11-21T09:40:35.566Z,91.35
2022-11-21T09:43:10.655Z,91.32
2022-11-21T09:45:46.700Z,91.33
2022-11-21T09:48:35.616Z,91.31
2022-11-21T09:51:11.571Z,90.84
2022-11-21T09:53:46.846Z,90.82
2022-11-21T09:56:23.729Z,90.96
2022-11-21T09:59:27.166Z,90.90
2022-11-21T10:01:54.131Z,90.61
2022-11-21T10:04:21.052Z,90.38
2022-11-21T10:07:06.724Z,90.24
2022-11-21T10:09:45.007Z,90.18
2022-11-21T10:12:42.377Z,90.34
2022-11-21T10:15:21.861Z,90.03
2022-11-21T10:18:12.155Z,90.00
2022-11-21T10:20:59.308Z,89.81
2022-11-21T10:23:44.804Z,90.15
2022-11-21T10:26:37.997Z,89.77
2022-11-21T10:29:30.054Z,89.63
2022-11-21T10:32:03.323Z,89.62
2022-11-21T10:34:35.692Z,89.49
2022-11-21T10:37:12.026Z,89.49
2022-11-21T10:39:45.587Z,89.36
2022-11-21T10:42:36.924Z,89.20
2022-11-21T10:45:17.365Z,89.08
2022-11-21T10:47:46.542Z,89.13
2022-11-21T10:50:22.038Z,88.98
2022-11-21T10:52:54.707Z,88.96
2022-11-21T10:55:21.690Z,88.68
2022-11-21T10:57:51.187Z,88.64
2022-11-21T11:00:22.719Z,88.89
2022-11-21T11:02:55.688Z,88.74
2022-11-21T11:05:30.002Z,88.39
2022-11-21T11:08:06.552Z,88.17
2022-11-21T11:10:42.670Z,88.31
2022-11-21T11:13:50.348Z,88.07
2022-11-21T11:16:21.978Z,87.65
2022-11-21T11:19:17.627Z,87.57
2022-11-21T11:21:45.978Z,87.35
2022-11-21T11:24:12.814Z,87.21
2022-11-21T11:26:48.380Z,87.15
2022-11-21T11:29:35.058Z,86.70
2022-11-21T11:32:17.893Z,86.60
2022-11-21T11:35:00.017Z,86.08
2022-11-21T11:37:40.994Z,86.00
2022-11-21T11:40:17.725Z,85.98
2022-11-21T11:43:17.123Z,86.18
2022-11-21T11:46:14.984Z,85.74
2022-11-21T11:49:16.798Z,85.82
2022-11-21T11:51:39.491Z,85.78
2022-11-21T11:54:49.557Z,85.67
2022-11-21T11:57:17.643Z,85.53
2022-11-21T11:59:51.245Z,85.44
2022-11-21T12:02:29.616Z,85.16
2022-11-21T12:05:13.045Z,84.86
2022-11-21T12:08:50.328Z,84.78
2022-11-21T12:11:32.766Z,84.84
2022-11-21T12:14:07.466Z,84.87
2022-11-21T12:16:37.070Z,85.00
2022-11-21T12:19:14.284Z,84.44
2022-11-21T12:21:41.498Z,84.58
2022-11-21T12:24:10.782Z,84.54
2022-11-21T12:26:49.844Z,84.10
2022-11-21T12:29:38.371Z,84.11
2022-11-21T12:32:20.441Z,84.03
2022-11-21T12:35:19.485Z,83.82
2022-11-21T12:38:05.253Z,83.88
2022-11-21T12:40:38.234Z,84.10
2022-11-21T12:43:50.753Z,83.97
2022-11-21T12:46:28.809Z,83.89
2022-11-21T12:49:33.004Z,83.43
2022-11-21T12:52:42.763Z,83.91
2022-11-21T12:55:20.866Z,84.13
2022-11-21T12:58:02.504Z,83.97
2022-11-21T13:00:29.923Z,84.18
2022-11-21T13:03:12.349Z,83.91
2022-11-21T13:05:43.194Z,84.07
2022-11-21T13:08:24.830Z,83.82
2022-11-21T13:11:29.484Z,83.95
2022-11-21T13:14:05.165Z,84.02
2022-11-21T13:16:37.168Z,83.61
2022-11-21T13:19:17.585Z,83.77
2022-11-21T13:21:50.543Z,83.68
2022-11-21T13:24:45.583Z,83.81
2022-11-21T13:27:38.885Z,83.75
2022-11-21T13:30:07.066Z,84.07
2022-11-21T13:32:45.813Z,83.89
2022-11-21T13:35:19.433Z,83.76
2022-11-21T13:37:53.052Z,83.95
2022-11-21T13:40:28.093Z,84.03
2022-11-21T13:46:01.702Z,84.58
2022-11-21T13:48:28.583Z,84.58
2022-11-21T13:51:10.483Z,84.35
2022-11-21T13:53:42.360Z,84.35
2022-11-21T13:56:13.084Z,84.16
2022-11-21T13:58:42.935Z,84.26
2022-11-21T14:01:25.356Z,84.17
2022-11-21T14:04:01.356Z,84.15
2022-11-21T14:06:38.074Z,84.03
2022-11-21T14:09:25.243Z,84.39
2022-11-21T14:11:57.415Z,84.18
2022-11-21T14:14:55.892Z,84.18
2022-11-21T14:17:31.830Z,84.34
2022-11-21T14:20:02.060Z,84.05
2022-11-21T14:22:42.406Z,84.33
2022-11-21T14:25:20.716Z,84.67
2022-11-21T14:27:53.499Z,84.74
2022-11-21T14:30:38.954Z,84.55
2022-11-21T14:33:26.131Z,84.53
2022-11-21T14:36:17.415Z,84.47
2022-11-21T14:39:02.157Z,84.43
2022-11-21T14:41:38.794Z,84.46
2022-11-21T14:44:14.712Z,84.82
2022-11-21T14:46:42.877Z,84.86
2022-11-21T14:49:12.843Z,85.54
2022-11-21T14:51:41.842Z,85.40
2022-11-21T14:54:18.833Z,85.46
2022-11-21T14:56:56.834Z,85.58
2022-11-21T14:59:39.059Z,85.98
2022-11-21T15:02:20.125Z,85.89
2022-11-21T15:04:49.563Z,85.89
2022-11-21T15:07:27.061Z,85.70
2022-11-21T15:10:33.459Z,86.01
2022-11-21T15:13:14.383Z,86.03
2022-11-21T15:15:47.208Z,86.14
2022-11-21T15:18:28.525Z,86.50
2022-11-21T15:20:59.124Z,86.72
2022-11-21T15:23:32.204Z,87.06
2022-11-21T15:26:01.529Z,86.91
2022-11-21T15:28:30.687Z,87.26
2022-11-21T15:31:19.696Z,87.25
2022-11-21T15:34:27.759Z,87.58
2022-11-21T15:37:05.016Z,87.43
2022-11-21T15:39:33.536Z,87.43
2022-11-21T15:42:31.571Z,87.19
2022-11-21T15:45:04.779Z,87.17
2022-11-21T15:47:31.813Z,87.28
2022-11-21T15:49:58.808Z,87.31
2022-11-21T15:52:25.923Z,87.41
2022-11-21T15:54:53.020Z,87.80
2022-11-21T15:57:22.145Z,87.67
2022-11-21T15:59:49.751Z,88.04
2022-11-21T16:02:16.921Z,87.96
2022-11-21T16:04:43.990Z,88.29
2022-11-21T16:07:11.050Z,88.33
2022-11-21T16:09:38.983Z,88.22
2022-11-21T16:12:05.992Z,88.36
2022-11-21T16:14:33.050Z,88.23
2022-11-21T16:17:00.067Z,88.10
2022-11-21T16:19:27.369Z,88.32
2022-11-21T16:21:55.507Z,88.15
2022-11-21T16:24:22.436Z,88.17
2022-11-21T16:26:53.640Z,88.29
2022-11-21T16:29:21.475Z,88.38
2022-11-21T16:31:51.002Z,88.39
2022-11-21T16:34:21.716Z,88.46
2022-11-21T16:36:50.463Z,88.71
2022-11-21T16:39:18.598Z,88.59
2022-11-21T16:41:46.804Z,88.68
2022-11-21T16:44:15.939Z,88.35
2022-11-21T16:46:45.275Z,88.48
2022-11-21T16:49:13.087Z,88.72
2022-11-21T16:51:40.062Z,88.61
2022-11-21T16:54:09.106Z,88.45
2022-11-21T16:56:36.362Z,88.68
2022-11-21T16:59:03.391Z,88.69
2022-11-21T17:01:30.465Z,88.54
2022-11-21T17:03:57.565Z,89.17
2022-11-21T17:06:29.952Z,89.46
2022-11-21T17:09:00.523Z,89.35
2022-11-21T17:11:31.304Z,89.29
2022-11-21T17:14:05.244Z,89.27
2022-11-21T17:16:34.821Z,89.55
2022-11-21T17:19:03.569Z,89.73
2022-11-21T17:21:31.911Z,89.77
2022-11-21T17:23:59.528Z,89.89
2022-11-21T17:26:29.181Z,89.66
2022-11-21T17:29:03.976Z,89.73
2022-11-21T17:31:32.112Z,89.55
2022-11-21T17:34:00.974Z,89.83
2022-11-21T17:36:30.263Z,89.59
2022-11-21T17:38:57.392Z,89.74
2022-11-21T17:41:25.405Z,89.76
2022-11-21T17:43:59.119Z,89.75
2022-11-21T17:46:27.362Z,89.64
2022-11-21T17:48:58.217Z,89.72
2022-11-21T17:51:33.065Z,89.66
2022-11-21T17:54:02.340Z,89.46
2022-11-21T17:56:31.617Z,89.63
2022-11-21T17:58:58.771Z,89.58
2022-11-21T18:01:26.646Z,89.77
2022-11-21T18:03:53.827Z,89.84
2022-11-21T18:06:21.159Z,89.85
2022-11-21T18:08:49.333Z,89.94
2022-11-21T18:11:19.356Z,89.84
2022-11-21T18:13:48.103Z,89.49
2022-11-21T18:16:18.524Z,89.55
2022-11-21T18:18:46.441Z,89.68
2022-11-21T18:21:19.004Z,89.74
2022-11-21T18:23:47.190Z,89.64
2022-11-21T18:26:34.957Z,89.88
2022-11-21T18:29:34.715Z,89.94
2022-11-21T18:31:54.610Z,89.98
2022-11-21T18:34:22.203Z,89.82
2022-11-21T18:36:49.669Z,89.71
2022-11-21T18:39:17.025Z,89.85
2022-11-21T18:41:47.198Z,90.02
2022-11-21T18:44:21.396Z,89.98
2022-11-21T18:46:49.325Z,90.29
2022-11-21T18:49:16.183Z,90.29
2022-11-21T18:51:43.323Z,90.26
2022-11-21T18:54:11.332Z,90.28
2022-11-21T18:56:40.002Z,90.03
2022-11-21T18:59:07.339Z,90.24
2022-11-21T19:01:39.444Z,90.06
2022-11-21T19:04:06.776Z,89.88
2022-11-21T19:06:33.803Z,90.01
2022-11-21T19:09:00.860Z,90.08
2022-11-21T19:11:29.974Z,90.21
2022-11-21T19:13:59.553Z,90.20
2022-11-21T19:16:28.033Z,90.03
2022-11-21T19:19:26.354Z,90.15
2022-11-21T19:21:43.606Z,90.28
2022-11-21T19:24:13.958Z,90.22
2022-11-21T19:26:42.702Z,90.14
2022-11-21T19:29:11.271Z,90.18
2022-11-21T19:31:44.605Z,90.29
2022-11-21T19:34:17.291Z,90.54
2022-11-21T19:36:45.168Z,90.71
2022-11-21T19:39:12.793Z,90.71
2022-11-21T19:41:40.425Z,90.81
2022-11-21T19:44:08.023Z,90.69
2022-11-21T19:46:38.212Z,90.62
2022-11-21T19:49:07.268Z,90.87
2022-11-21T19:51:37.883Z,90.96
2022-11-21T19:54:11.329Z,91.01
2022-11-21T19:56:38.372Z,90.74
2022-11-21T19:59:06.155Z,90.70
2022-11-21T20:01:35.404Z,90.77
2022-11-21T20:04:04.449Z,90.99
2022-11-21T20:06:33.165Z,90.81
2022-11-21T20:09:09.733Z,90.86
2022-11-21T20:11:39.003Z,90.99
2022-11-21T20:14:06.836Z,90.95
2022-11-21T20:16:35.882Z,91.08
2022-11-21T20:19:06.796Z,91.34
2022-11-21T20:21:34.969Z,91.11
2022-11-21T20:24:03.403Z,91.06
2022-11-21T20:26:31.381Z,91.21
2022-11-21T20:28:59.128Z,91.23
2022-11-21T20:31:29.715Z,91.37
2022-11-21T20:34:00.930Z,91.62
2022-11-21T20:36:30.346Z,91.94
2022-11-21T20:39:03.182Z,91.54
2022-11-21T20:41:34.840Z,91.61
2022-11-21T20:46:57.508Z,91.50
2022-11-21T20:49:24.956Z,91.54
2022-11-21T20:54:39.573Z,91.94
2022-11-21T20:57:10.411Z,92.06
2022-11-21T20:59:41.851Z,92.07
2022-11-21T21:02:12.228Z,92.01
2022-11-21T21:04:39.597Z,92.05
2022-11-21T21:07:06.570Z,92.38
2022-11-21T21:09:34.407Z,92.19
2022-11-21T21:12:01.403Z,92.42
2022-11-21T21:14:28.433Z,92.35
2022-11-21T21:16:55.413Z,92.56
2022-11-21T21:19:22.514Z,92.58
2022-11-21T21:21:49.572Z,92.55
2022-11-21T21:24:17.423Z,92.65
2022-11-21T21:26:47.384Z,92.87
2022-11-21T21:29:18.110Z,92.77
2022-11-21T21:31:50.537Z,93.01
2022-11-21T21:34:19.369Z,92.93
2022-11-21T21:36:47.153Z,93.02
2022-11-21T21:39:14.653Z,93.14
2022-11-21T21:41:44.908Z,93.26
2022-11-21T21:44:12.688Z,93.27
2022-11-21T21:46:39.640Z,93.51
2022-11-21T21:49:06.602Z,93.32
2022-11-21T21:51:33.536Z,93.43
2022-11-21T21:54:00.683Z,93.31
2022-11-21T21:56:29.274Z,93.36
2022-11-21T21:58:58.094Z,93.43
2022-11-21T22:01:33.094Z,93.84
2022-11-21T22:04:04.802Z,93.95
2022-11-21T22:06:35.504Z,93.97
2022-11-21T22:09:02.683Z,93.84
2022-11-21T22:11:32.377Z,93.88
2022-11-21T22:14:05.367Z,94.22
2022-11-21T22:16:33.173Z,93.99
2022-11-21T22:19:00.003Z,93.96
2022-11-21T22:21:29.797Z,94.17
2022-11-21T22:24:23.462Z,94.14
2022-11-21T22:26:45.606Z,94.64
2022-11-21T22:29:12.525Z,94.39
2022-11-21T22:31:39.662Z,94.35
2022-11-21T22:34:07.018Z,94.45
2022-11-21T22:36:34.674Z,94.63
2022-11-21T22:39:01.632Z,94.44
2022-11-21T22:41:28.696Z,94.99
2022-11-21T22:43:57.847Z,94.93
2022-11-21T22:46:27.404Z,95.16
2022-11-21T22:48:54.467Z,95.15
2022-11-21T22:51:27.644Z,95.05
2022-11-21T22:53:55.167Z,95.21
2022-11-21T22:56:24.166Z,95.31
2022-11-21T22:58:51.660Z,95.35
2022-11-21T23:01:23.895Z,95.10
2022-11-21T23:03:52.686Z,95.54
2022-11-21T23:06:23.982Z,95.17
2022-11-21T23:08:53.661Z,95.48
2022-11-21T23:11:23.164Z,95.51
2022-11-21T23:13:51.543Z,95.54
2022-11-21T23:16:19.232Z,96.07
2022-11-21T23:18:46.212Z,96.00
2022-11-21T23:21:13.884Z,95.85
2022-11-21T23:23:41.547Z,96.17
2022-11-21T23:26:08.535Z,96.30
2022-11-21T23:28:35.564Z,96.24
2022-11-21T23:31:02.883Z,96.37
2022-11-21T23:33:29.892Z,96.52
2022-11-21T23:35:56.996Z,96.33
2022-11-21T23:38:23.982Z,96.48
2022-11-21T23:40:51.025Z,96.61
2022-11-21T23:43:19.027Z,96.52
2022-11-21T23:45:50.434Z,97.01
2022-11-21T23:48:18.149Z,97.09
2022-11-21T23:50:47.442Z,97.24
2022-11-21T23:53:14.688Z,97.39
2022-11-21T23:55:43.888Z,97.77
2022-11-21T23:58:11.482Z,97.82
